QTRB8K VTSP-VTBS
Flight info
| Callsign | QTRB8K |
|---|---|
| Flight time | 1h 11m |
| Altitude | 35000 |
| Route | EMRIT1A EMRIT Y99 NONEL Y98 LEBIM LEBIM1C |
| Aircraft | A320/M-SDE3FGHIRWY/LB1 |
Departure
| Time | 2026-05-05 07:06 |
|---|---|
| Airport | Phuket International Airport (VTSP) |
Arrival
| Time | 2026-05-05 08:17 |
|---|---|
| Airport | Suvarnabhumi Airport (VTBS) |
| Time | Latitude | Longitude | Altitude | Speed | Heading |
|---|---|---|---|---|---|
| 2026-05-05 06:48 | 8.10649 | 98.30493 | 31 ft | 0 kts | 105° |
| 2026-05-05 06:57 | 8.10653 | 98.30476 | 31 ft | 2 kts | 105° |
| 2026-05-05 06:57 | 8.10658 | 98.30459 | 28 ft | 2 kts | 105° |
| 2026-05-05 06:57 | 8.10662 | 98.30442 | 31 ft | 2 kts | 105° |
| 2026-05-05 06:58 | 8.10666 | 98.30425 | 31 ft | 2 kts | 93° |
| 2026-05-05 06:58 | 8.10664 | 98.30407 | 30 ft | 3 kts | 66° |
| 2026-05-05 06:58 | 8.10654 | 98.30393 | 28 ft | 3 kts | 29° |
| 2026-05-05 06:58 | 8.10640 | 98.30387 | 28 ft | 0 kts | 2° |
| 2026-05-05 07:01 | 8.10645 | 98.30388 | 28 ft | 2 kts | 2° |
| 2026-05-05 07:01 | 8.10671 | 98.30389 | 30 ft | 8 kts | 2° |
| 2026-05-05 07:01 | 8.10747 | 98.30370 | 30 ft | 13 kts | 339° |
| 2026-05-05 07:02 | 8.10851 | 98.30368 | 30 ft | 17 kts | 14° |
| 2026-05-05 07:02 | 8.10970 | 98.30396 | 30 ft | 15 kts | 15° |
| 2026-05-05 07:02 | 8.11056 | 98.30361 | 30 ft | 14 kts | 327° |
| 2026-05-05 07:02 | 8.11094 | 98.30351 | 30 ft | 0 kts | 352° |
| 2026-05-05 07:03 | 8.11101 | 98.30350 | 30 ft | 0 kts | 351° |
| 2026-05-05 07:04 | 8.11102 | 98.30350 | 30 ft | 1 kts | 351° |
| 2026-05-05 07:04 | 8.11113 | 98.30348 | 31 ft | 3 kts | 352° |
| 2026-05-05 07:04 | 8.11147 | 98.30345 | 31 ft | 7 kts | 358° |
| 2026-05-05 07:05 | 8.11195 | 98.30369 | 30 ft | 8 kts | 63° |
| 2026-05-05 07:05 | 8.11202 | 98.30402 | 30 ft | 0 kts | 88° |
| 2026-05-05 07:05 | 8.11202 | 98.30403 | 30 ft | 4 kts | 88° |
| 2026-05-05 07:05 | 8.11220 | 98.30688 | 31 ft | 73 kts | 73° |
| 2026-05-05 07:06 | 8.11291 | 98.31352 | 44 ft | 118 kts | 82° |
| 2026-05-05 07:06 | 8.11383 | 98.32313 | 181 ft | 148 kts | 84° |
| 2026-05-05 07:06 | 8.11470 | 98.33334 | 829 ft | 146 kts | 84° |
| 2026-05-05 07:06 | 8.11572 | 98.34393 | 1353 ft | 156 kts | 85° |
| 2026-05-05 07:07 | 8.11679 | 98.35533 | 1757 ft | 171 kts | 85° |
| 2026-05-05 07:07 | 8.11797 | 98.36781 | 2150 ft | 186 kts | 85° |
| 2026-05-05 07:07 | 8.11925 | 98.38120 | 2529 ft | 202 kts | 85° |
| 2026-05-05 07:07 | 8.12065 | 98.39608 | 2884 ft | 222 kts | 85° |
| 2026-05-05 07:08 | 8.12217 | 98.41221 | 3367 ft | 239 kts | 85° |
| 2026-05-05 07:08 | 8.12380 | 98.42954 | 3907 ft | 257 kts | 85° |
| 2026-05-05 07:08 | 8.12553 | 98.44787 | 4658 ft | 266 kts | 85° |
| 2026-05-05 07:08 | 8.12728 | 98.46646 | 5537 ft | 267 kts | 85° |
| 2026-05-05 07:09 | 8.12905 | 98.48521 | 6432 ft | 269 kts | 85° |
| 2026-05-05 07:09 | 8.13081 | 98.50405 | 7235 ft | 272 kts | 85° |
| 2026-05-05 07:09 | 8.13258 | 98.52316 | 8041 ft | 275 kts | 85° |
| 2026-05-05 07:09 | 8.13438 | 98.54243 | 8826 ft | 278 kts | 85° |
| 2026-05-05 07:10 | 8.13620 | 98.56198 | 9618 ft | 281 kts | 84° |
| 2026-05-05 07:10 | 8.13804 | 98.58174 | 10248 ft | 289 kts | 84° |
| 2026-05-05 07:10 | 8.13987 | 98.60254 | 10618 ft | 305 kts | 87° |
| 2026-05-05 07:10 | 8.13871 | 98.62430 | 11066 ft | 317 kts | 99° |
| 2026-05-05 07:11 | 8.13475 | 98.64641 | 11369 ft | 333 kts | 99° |
| 2026-05-05 07:11 | 8.13055 | 98.66993 | 11655 ft | 347 kts | 99° |
| 2026-05-05 07:11 | 8.12632 | 98.69421 | 12168 ft | 354 kts | 99° |
| 2026-05-05 07:11 | 8.12208 | 98.71879 | 12769 ft | 357 kts | 99° |
| 2026-05-05 07:12 | 8.11776 | 98.74364 | 13361 ft | 361 kts | 99° |
| 2026-05-05 07:12 | 8.11338 | 98.76869 | 13917 ft | 364 kts | 99° |
| 2026-05-05 07:12 | 8.10893 | 98.79403 | 14441 ft | 368 kts | 99° |
| 2026-05-05 07:12 | 8.10590 | 98.81978 | 14963 ft | 371 kts | 91° |
| 2026-05-05 07:13 | 8.10610 | 98.84593 | 15474 ft | 374 kts | 89° |
| 2026-05-05 07:13 | 8.10640 | 98.87235 | 15990 ft | 378 kts | 89° |
| 2026-05-05 07:13 | 8.10668 | 98.89900 | 16503 ft | 381 kts | 89° |
| 2026-05-05 07:13 | 8.10697 | 98.92584 | 17022 ft | 385 kts | 89° |
| 2026-05-05 07:14 | 8.10995 | 98.95278 | 17543 ft | 389 kts | 77° |
| 2026-05-05 07:14 | 8.11851 | 98.97876 | 18077 ft | 392 kts | 65° |
| 2026-05-05 07:14 | 8.13240 | 99.00256 | 18529 ft | 397 kts | 54° |
| 2026-05-05 07:14 | 8.15054 | 99.02321 | 18994 ft | 400 kts | 47° |
| 2026-05-05 07:15 | 8.16989 | 99.04358 | 19460 ft | 403 kts | 47° |
| 2026-05-05 07:15 | 8.18931 | 99.06413 | 19950 ft | 406 kts | 47° |
| 2026-05-05 07:15 | 8.20881 | 99.08489 | 20417 ft | 409 kts | 47° |
| 2026-05-05 07:15 | 8.22841 | 99.10580 | 20885 ft | 411 kts | 47° |
| 2026-05-05 07:16 | 8.24815 | 99.12687 | 21335 ft | 414 kts | 47° |
| 2026-05-05 07:16 | 8.26802 | 99.14806 | 21768 ft | 417 kts | 47° |
| 2026-05-05 07:16 | 8.28804 | 99.16942 | 22184 ft | 419 kts | 47° |
| 2026-05-05 07:16 | 8.30819 | 99.19088 | 22595 ft | 422 kts | 47° |
| 2026-05-05 07:17 | 8.32847 | 99.21246 | 22984 ft | 424 kts | 47° |
| 2026-05-05 07:17 | 8.34887 | 99.23413 | 23365 ft | 427 kts | 47° |
| 2026-05-05 07:17 | 8.36937 | 99.25590 | 23676 ft | 429 kts | 47° |
| 2026-05-05 07:17 | 8.39004 | 99.27784 | 23982 ft | 431 kts | 47° |
| 2026-05-05 07:18 | 8.41095 | 99.29973 | 24283 ft | 433 kts | 44° |
| 2026-05-05 07:18 | 8.43459 | 99.31866 | 24589 ft | 436 kts | 33° |
| 2026-05-05 07:18 | 8.46148 | 99.33294 | 24881 ft | 439 kts | 22° |
| 2026-05-05 07:18 | 8.49040 | 99.34178 | 25167 ft | 442 kts | 12° |
| 2026-05-05 07:19 | 8.52145 | 99.34514 | 25452 ft | 445 kts | 4° |
| 2026-05-05 07:19 | 8.55253 | 99.34661 | 25726 ft | 448 kts | 4° |
| 2026-05-05 07:19 | 8.58330 | 99.34806 | 25994 ft | 450 kts | 4° |
| 2026-05-05 07:19 | 8.61464 | 99.34954 | 26265 ft | 452 kts | 4° |
| 2026-05-05 07:20 | 8.64606 | 99.35107 | 26545 ft | 453 kts | 4° |
| 2026-05-05 07:20 | 8.67766 | 99.35264 | 26799 ft | 455 kts | 4° |
| 2026-05-05 07:20 | 8.70937 | 99.35425 | 27059 ft | 457 kts | 4° |
| 2026-05-05 07:20 | 8.74117 | 99.35587 | 27330 ft | 458 kts | 4° |
| 2026-05-05 07:21 | 8.77314 | 99.35750 | 27593 ft | 460 kts | 4° |
| 2026-05-05 07:21 | 8.80522 | 99.35912 | 27841 ft | 462 kts | 4° |
| 2026-05-05 07:21 | 8.83746 | 99.36070 | 28096 ft | 464 kts | 4° |
| 2026-05-05 07:21 | 8.86979 | 99.36229 | 28355 ft | 466 kts | 4° |
| 2026-05-05 07:22 | 8.90228 | 99.36391 | 28604 ft | 468 kts | 4° |
| 2026-05-05 07:22 | 8.93483 | 99.36555 | 28841 ft | 470 kts | 4° |
| 2026-05-05 07:22 | 8.96753 | 99.36719 | 29111 ft | 471 kts | 4° |
| 2026-05-05 07:22 | 9.00019 | 99.36881 | 29469 ft | 470 kts | 4° |
| 2026-05-05 07:23 | 9.03282 | 99.37043 | 29860 ft | 469 kts | 4° |
| 2026-05-05 07:23 | 9.06537 | 99.37208 | 30186 ft | 468 kts | 4° |
| 2026-05-05 07:23 | 9.09785 | 99.37374 | 30530 ft | 466 kts | 4° |
| 2026-05-05 07:23 | 9.13017 | 99.37540 | 30890 ft | 464 kts | 4° |
| 2026-05-05 07:24 | 9.16197 | 99.37700 | 31259 ft | 462 kts | 4° |
| 2026-05-05 07:24 | 9.19401 | 99.37859 | 31639 ft | 460 kts | 4° |
| 2026-05-05 07:24 | 9.22593 | 99.38042 | 32022 ft | 458 kts | 7° |
| 2026-05-05 07:24 | 9.25717 | 99.38604 | 32418 ft | 454 kts | 16° |
| 2026-05-05 07:25 | 9.28737 | 99.39525 | 32795 ft | 453 kts | 18° |
| 2026-05-05 07:25 | 9.31741 | 99.40467 | 33164 ft | 451 kts | 18° |
| 2026-05-05 07:25 | 9.34742 | 99.41406 | 33548 ft | 450 kts | 18° |
| 2026-05-05 07:25 | 9.37732 | 99.42339 | 33925 ft | 449 kts | 18° |
| 2026-05-05 07:26 | 9.40722 | 99.43269 | 34219 ft | 448 kts | 18° |
| 2026-05-05 07:26 | 9.43702 | 99.44196 | 34442 ft | 448 kts | 17° |
| 2026-05-05 07:26 | 9.46685 | 99.45119 | 34672 ft | 448 kts | 17° |
| 2026-05-05 07:26 | 9.49674 | 99.46040 | 34819 ft | 450 kts | 17° |
| 2026-05-05 07:27 | 9.52651 | 99.46959 | 34859 ft | 454 kts | 17° |
| 2026-05-05 07:27 | 9.58700 | 99.48836 | 34860 ft | 455 kts | 17° |
| 2026-05-05 07:28 | 9.64756 | 99.50731 | 34862 ft | 456 kts | 17° |
| 2026-05-05 07:28 | 9.70817 | 99.52627 | 34862 ft | 456 kts | 17° |
| 2026-05-05 07:29 | 9.76892 | 99.54521 | 34863 ft | 457 kts | 17° |
| 2026-05-05 07:29 | 9.82981 | 99.56418 | 34867 ft | 458 kts | 17° |
| 2026-05-05 07:30 | 9.89080 | 99.58315 | 34867 ft | 458 kts | 17° |
| 2026-05-05 07:30 | 9.98228 | 99.61163 | 34874 ft | 459 kts | 18° |
| 2026-05-05 07:31 | 10.04328 | 99.63074 | 34873 ft | 459 kts | 18° |
| 2026-05-05 07:31 | 10.10402 | 99.64975 | 34873 ft | 459 kts | 17° |
| 2026-05-05 07:32 | 10.16522 | 99.66876 | 34871 ft | 460 kts | 17° |
| 2026-05-05 07:32 | 10.22645 | 99.68784 | 34867 ft | 460 kts | 17° |
| 2026-05-05 07:33 | 10.28782 | 99.70704 | 34864 ft | 462 kts | 17° |
| 2026-05-05 07:33 | 10.34935 | 99.72628 | 34865 ft | 462 kts | 17° |
| 2026-05-05 07:34 | 10.41089 | 99.74555 | 34876 ft | 463 kts | 17° |
| 2026-05-05 07:34 | 10.47242 | 99.76479 | 34876 ft | 463 kts | 17° |
| 2026-05-05 07:35 | 10.53360 | 99.78395 | 34877 ft | 463 kts | 17° |
| 2026-05-05 07:35 | 10.59523 | 99.80331 | 34872 ft | 463 kts | 17° |
| 2026-05-05 07:36 | 10.65688 | 99.82264 | 34866 ft | 464 kts | 17° |
| 2026-05-05 07:36 | 10.71861 | 99.84203 | 34862 ft | 464 kts | 17° |
| 2026-05-05 07:37 | 10.78040 | 99.86136 | 34873 ft | 464 kts | 17° |
| 2026-05-05 07:37 | 10.84216 | 99.88066 | 34869 ft | 464 kts | 17° |
| 2026-05-05 07:38 | 10.90245 | 99.90419 | 34866 ft | 465 kts | 28° |
| 2026-05-05 07:38 | 10.95913 | 99.93621 | 34863 ft | 466 kts | 28° |
| 2026-05-05 07:39 | 11.01595 | 99.96813 | 34864 ft | 467 kts | 28° |
| 2026-05-05 07:39 | 11.07262 | 99.99993 | 34866 ft | 467 kts | 28° |
| 2026-05-05 07:40 | 11.11998 | 100.02655 | 34867 ft | 468 kts | 28° |
| 2026-05-05 07:40 | 11.17698 | 100.05869 | 34866 ft | 468 kts | 28° |
| 2026-05-05 07:41 | 11.23412 | 100.09094 | 34869 ft | 468 kts | 28° |
| 2026-05-05 07:41 | 11.29117 | 100.12304 | 34865 ft | 468 kts | 28° |
| 2026-05-05 07:42 | 11.34772 | 100.15494 | 34860 ft | 467 kts | 28° |
| 2026-05-05 07:42 | 11.40466 | 100.18710 | 34851 ft | 468 kts | 28° |
| 2026-05-05 07:43 | 11.46166 | 100.21926 | 34859 ft | 468 kts | 28° |
| 2026-05-05 07:43 | 11.51867 | 100.25142 | 34863 ft | 468 kts | 28° |
| 2026-05-05 07:44 | 11.57577 | 100.28366 | 34863 ft | 469 kts | 28° |
| 2026-05-05 07:44 | 11.63285 | 100.31590 | 34866 ft | 468 kts | 28° |
| 2026-05-05 07:45 | 11.68980 | 100.34820 | 34866 ft | 468 kts | 28° |
| 2026-05-05 07:45 | 11.74687 | 100.38048 | 34869 ft | 468 kts | 28° |
| 2026-05-05 07:46 | 11.80348 | 100.41245 | 34867 ft | 468 kts | 28° |
| 2026-05-05 07:46 | 11.86332 | 100.43799 | 34862 ft | 466 kts | 12° |
| 2026-05-05 07:47 | 11.92760 | 100.44420 | 34853 ft | 465 kts | 0° |
| 2026-05-05 07:47 | 11.99227 | 100.44569 | 34858 ft | 465 kts | 0° |
| 2026-05-05 07:48 | 12.05694 | 100.44740 | 34866 ft | 464 kts | 0° |
| 2026-05-05 07:48 | 12.12151 | 100.44903 | 34871 ft | 464 kts | 0° |
| 2026-05-05 07:49 | 12.18542 | 100.45062 | 34545 ft | 460 kts | 0° |
| 2026-05-05 07:49 | 12.21749 | 100.45143 | 34318 ft | 460 kts | 0° |
| 2026-05-05 07:49 | 12.24953 | 100.45225 | 34093 ft | 461 kts | 0° |
| 2026-05-05 07:50 | 12.28161 | 100.45309 | 33868 ft | 461 kts | 0° |
| 2026-05-05 07:50 | 12.31376 | 100.45395 | 33621 ft | 461 kts | 0° |
| 2026-05-05 07:50 | 12.34587 | 100.45478 | 33368 ft | 462 kts | 0° |
| 2026-05-05 07:50 | 12.37805 | 100.45559 | 33118 ft | 463 kts | 0° |
| 2026-05-05 07:51 | 12.41029 | 100.45639 | 32873 ft | 464 kts | 0° |
| 2026-05-05 07:51 | 12.44224 | 100.45716 | 32623 ft | 464 kts | 0° |
| 2026-05-05 07:51 | 12.47459 | 100.45793 | 31753 ft | 467 kts | 0° |
| 2026-05-05 07:51 | 12.50731 | 100.45871 | 30750 ft | 472 kts | 0° |
| 2026-05-05 07:52 | 12.54026 | 100.45951 | 29708 ft | 476 kts | 0° |
| 2026-05-05 07:52 | 12.57359 | 100.46036 | 28473 ft | 481 kts | 1° |
| 2026-05-05 07:52 | 12.60708 | 100.46125 | 27532 ft | 479 kts | 1° |
| 2026-05-05 07:52 | 12.64007 | 100.46213 | 26898 ft | 471 kts | 1° |
| 2026-05-05 07:53 | 12.67261 | 100.46300 | 26152 ft | 466 kts | 1° |
| 2026-05-05 07:53 | 12.70486 | 100.46384 | 25426 ft | 461 kts | 1° |
| 2026-05-05 07:53 | 12.73676 | 100.46464 | 24700 ft | 457 kts | 1° |
| 2026-05-05 07:53 | 12.76840 | 100.46541 | 23991 ft | 453 kts | 1° |
| 2026-05-05 07:54 | 12.79983 | 100.46619 | 23242 ft | 450 kts | 1° |
| 2026-05-05 07:54 | 12.83099 | 100.46698 | 22488 ft | 445 kts | 1° |
| 2026-05-05 07:54 | 12.86170 | 100.46776 | 21815 ft | 438 kts | 1° |
| 2026-05-05 07:54 | 12.89200 | 100.46853 | 21146 ft | 432 kts | 1° |
| 2026-05-05 07:55 | 12.92192 | 100.46928 | 20509 ft | 427 kts | 1° |
| 2026-05-05 07:55 | 12.95150 | 100.47005 | 19894 ft | 423 kts | 1° |
| 2026-05-05 07:55 | 12.98070 | 100.47082 | 19293 ft | 413 kts | 1° |
| 2026-05-05 07:55 | 13.00892 | 100.47155 | 18727 ft | 398 kts | 1° |
| 2026-05-05 07:56 | 13.03608 | 100.47225 | 18182 ft | 383 kts | 1° |
| 2026-05-05 07:56 | 13.06226 | 100.47350 | 17554 ft | 369 kts | 8° |
| 2026-05-05 07:56 | 13.08699 | 100.47935 | 17300 ft | 368 kts | 19° |
| 2026-05-05 07:56 | 13.10991 | 100.49018 | 17049 ft | 367 kts | 31° |
| 2026-05-05 07:57 | 13.13089 | 100.50493 | 16801 ft | 365 kts | 35° |
| 2026-05-05 07:57 | 13.15163 | 100.51998 | 16455 ft | 363 kts | 35° |
| 2026-05-05 07:57 | 13.17225 | 100.53488 | 16008 ft | 360 kts | 35° |
| 2026-05-05 07:57 | 13.19267 | 100.54961 | 15555 ft | 358 kts | 35° |
| 2026-05-05 07:58 | 13.21297 | 100.56427 | 15109 ft | 356 kts | 35° |
| 2026-05-05 07:58 | 13.23313 | 100.57884 | 14667 ft | 353 kts | 36° |
| 2026-05-05 07:58 | 13.25316 | 100.59332 | 14217 ft | 351 kts | 36° |
| 2026-05-05 07:58 | 13.27307 | 100.60772 | 13777 ft | 348 kts | 36° |
| 2026-05-05 07:59 | 13.29280 | 100.62196 | 13376 ft | 344 kts | 36° |
| 2026-05-05 07:59 | 13.31221 | 100.63596 | 12999 ft | 338 kts | 36° |
| 2026-05-05 07:59 | 13.33127 | 100.64975 | 12661 ft | 331 kts | 36° |
| 2026-05-05 07:59 | 13.34982 | 100.66318 | 12426 ft | 322 kts | 36° |
| 2026-05-05 08:00 | 13.36802 | 100.67634 | 12085 ft | 318 kts | 36° |
| 2026-05-05 08:00 | 13.38600 | 100.68931 | 11730 ft | 314 kts | 36° |
| 2026-05-05 08:00 | 13.40377 | 100.70211 | 11396 ft | 310 kts | 36° |
| 2026-05-05 08:00 | 13.42133 | 100.71477 | 11057 ft | 307 kts | 36° |
| 2026-05-05 08:01 | 13.43863 | 100.72728 | 10796 ft | 301 kts | 36° |
| 2026-05-05 08:01 | 13.45533 | 100.73938 | 10569 ft | 295 kts | 36° |
| 2026-05-05 08:01 | 13.47212 | 100.75156 | 10369 ft | 287 kts | 36° |
| 2026-05-05 08:01 | 13.48796 | 100.76304 | 10255 ft | 277 kts | 36° |
| 2026-05-05 08:02 | 13.50348 | 100.77429 | 10135 ft | 269 kts | 36° |
| 2026-05-05 08:02 | 13.51864 | 100.78528 | 10015 ft | 262 kts | 36° |
| 2026-05-05 08:02 | 13.53365 | 100.79617 | 9863 ft | 273 kts | 36° |
| 2026-05-05 08:02 | 13.54999 | 100.80705 | 9690 ft | 282 kts | 27° |
| 2026-05-05 08:03 | 13.56843 | 100.81395 | 9510 ft | 282 kts | 15° |
| 2026-05-05 08:03 | 13.58744 | 100.81899 | 9342 ft | 282 kts | 16° |
| 2026-05-05 08:03 | 13.60642 | 100.82412 | 9173 ft | 281 kts | 16° |
| 2026-05-05 08:03 | 13.62506 | 100.82921 | 9005 ft | 280 kts | 16° |
| 2026-05-05 08:04 | 13.64396 | 100.83442 | 8717 ft | 281 kts | 16° |
| 2026-05-05 08:04 | 13.66276 | 100.83959 | 8410 ft | 279 kts | 16° |
| 2026-05-05 08:04 | 13.68147 | 100.84471 | 8116 ft | 277 kts | 16° |
| 2026-05-05 08:04 | 13.70004 | 100.84981 | 7818 ft | 275 kts | 15° |
| 2026-05-05 08:05 | 13.71849 | 100.85487 | 7529 ft | 273 kts | 16° |
| 2026-05-05 08:05 | 13.73686 | 100.85992 | 7238 ft | 272 kts | 16° |
| 2026-05-05 08:05 | 13.75516 | 100.86496 | 6943 ft | 272 kts | 16° |
| 2026-05-05 08:05 | 13.77327 | 100.86992 | 6660 ft | 264 kts | 16° |
| 2026-05-05 08:06 | 13.79065 | 100.87466 | 6392 ft | 252 kts | 16° |
| 2026-05-05 08:06 | 13.80725 | 100.87919 | 6296 ft | 249 kts | 16° |
| 2026-05-05 08:06 | 13.82391 | 100.88373 | 6187 ft | 248 kts | 16° |
| 2026-05-05 08:06 | 13.84056 | 100.88828 | 6050 ft | 247 kts | 16° |
| 2026-05-05 08:07 | 13.85714 | 100.89285 | 5808 ft | 246 kts | 16° |
| 2026-05-05 08:07 | 13.87367 | 100.89739 | 5576 ft | 245 kts | 16° |
| 2026-05-05 08:07 | 13.89013 | 100.90191 | 5348 ft | 245 kts | 15° |
| 2026-05-05 08:07 | 13.90657 | 100.90641 | 5129 ft | 243 kts | 15° |
| 2026-05-05 08:08 | 13.92260 | 100.91080 | 5019 ft | 233 kts | 15° |
| 2026-05-05 08:08 | 13.93762 | 100.91491 | 5018 ft | 219 kts | 16° |
| 2026-05-05 08:08 | 13.95232 | 100.91894 | 5018 ft | 220 kts | 15° |
| 2026-05-05 08:08 | 13.96712 | 100.92297 | 5018 ft | 220 kts | 14° |
| 2026-05-05 08:09 | 13.98224 | 100.92315 | 5019 ft | 221 kts | 343° |
| 2026-05-05 08:09 | 13.99557 | 100.91539 | 4955 ft | 224 kts | 314° |
| 2026-05-05 08:09 | 14.00337 | 100.90185 | 4713 ft | 221 kts | 284° |
| 2026-05-05 08:09 | 14.00685 | 100.88641 | 4488 ft | 221 kts | 283° |
| 2026-05-05 08:10 | 14.00999 | 100.87097 | 4276 ft | 220 kts | 273° |
| 2026-05-05 08:10 | 14.00739 | 100.85567 | 4065 ft | 218 kts | 243° |
| 2026-05-05 08:10 | 13.99790 | 100.84376 | 3874 ft | 217 kts | 213° |
| 2026-05-05 08:10 | 13.98427 | 100.83800 | 3709 ft | 216 kts | 192° |
| 2026-05-05 08:11 | 13.96968 | 100.83422 | 3533 ft | 216 kts | 194° |
| 2026-05-05 08:11 | 13.95520 | 100.83040 | 3357 ft | 215 kts | 194° |
| 2026-05-05 08:11 | 13.94071 | 100.82657 | 3184 ft | 214 kts | 194° |
| 2026-05-05 08:11 | 13.92627 | 100.82277 | 3017 ft | 214 kts | 194° |
| 2026-05-05 08:12 | 13.91187 | 100.81897 | 2855 ft | 214 kts | 194° |
| 2026-05-05 08:12 | 13.89747 | 100.81518 | 2692 ft | 212 kts | 194° |
| 2026-05-05 08:12 | 13.88311 | 100.81140 | 2621 ft | 213 kts | 193° |
| 2026-05-05 08:12 | 13.86900 | 100.80768 | 2528 ft | 206 kts | 194° |
| 2026-05-05 08:13 | 13.85539 | 100.80410 | 2464 ft | 195 kts | 193° |
| 2026-05-05 08:13 | 13.84257 | 100.80072 | 2352 ft | 186 kts | 193° |
| 2026-05-05 08:13 | 13.83057 | 100.79756 | 2195 ft | 167 kts | 194° |
| 2026-05-05 08:13 | 13.82018 | 100.79483 | 2122 ft | 147 kts | 193° |
| 2026-05-05 08:14 | 13.81032 | 100.79224 | 2024 ft | 146 kts | 194° |
| 2026-05-05 08:14 | 13.80044 | 100.78964 | 1920 ft | 146 kts | 194° |
| 2026-05-05 08:14 | 13.79057 | 100.78704 | 1856 ft | 146 kts | 193° |
| 2026-05-05 08:14 | 13.78076 | 100.78446 | 1724 ft | 146 kts | 194° |
| 2026-05-05 08:15 | 13.77108 | 100.78189 | 1569 ft | 147 kts | 194° |
| 2026-05-05 08:15 | 13.76120 | 100.77927 | 1405 ft | 146 kts | 194° |
| 2026-05-05 08:15 | 13.75132 | 100.77664 | 1241 ft | 145 kts | 193° |
| 2026-05-05 08:15 | 13.74159 | 100.77412 | 1064 ft | 144 kts | 193° |
| 2026-05-05 08:16 | 13.73185 | 100.77163 | 871 ft | 144 kts | 194° |
| 2026-05-05 08:16 | 13.72215 | 100.76908 | 686 ft | 145 kts | 193° |
| 2026-05-05 08:16 | 13.71255 | 100.76659 | 466 ft | 142 kts | 192° |
| 2026-05-05 08:16 | 13.70288 | 100.76395 | 277 ft | 145 kts | 192° |
| 2026-05-05 08:17 | 13.69318 | 100.76139 | 101 ft | 143 kts | 192° |
| 2026-05-05 08:17 | 13.68369 | 100.75889 | 17 ft | 134 kts | 192° |
| 2026-05-05 08:17 | 13.67606 | 100.75701 | 11 ft | 87 kts | 196° |
| 2026-05-05 08:17 | 13.67204 | 100.75590 | 13 ft | 47 kts | 193° |
| 2026-05-05 08:18 | 13.66928 | 100.75521 | 14 ft | 37 kts | 199° |
| 2026-05-05 08:18 | 13.66725 | 100.75407 | 13 ft | 20 kts | 222° |
| 2026-05-05 08:18 | 13.66685 | 100.75364 | 15 ft | 0 kts | 227° |
| 2026-05-05 08:18 | 13.66665 | 100.75343 | 13 ft | 8 kts | 227° |
| 2026-05-05 08:19 | 13.66640 | 100.75290 | 13 ft | 9 kts | 276° |
| 2026-05-05 08:19 | 13.66668 | 100.75272 | 13 ft | 5 kts | 337° |
| 2026-05-05 08:19 | 13.66719 | 100.75269 | 13 ft | 12 kts | 11° |
| 2026-05-05 08:19 | 13.66823 | 100.75295 | 15 ft | 17 kts | 13° |
| 2026-05-05 08:20 | 13.66951 | 100.75326 | 13 ft | 20 kts | 13° |
| 2026-05-05 08:20 | 13.67091 | 100.75364 | 13 ft | 9 kts | 18° |
| 2026-05-05 08:20 | 13.67093 | 100.75365 | 13 ft | 0 kts | 18° |
| 2026-05-05 08:21 | 13.67107 | 100.75369 | 13 ft | 8 kts | 18° |
| 2026-05-05 08:21 | 13.67181 | 100.75390 | 13 ft | 14 kts | 15° |
| 2026-05-05 08:21 | 13.67305 | 100.75425 | 14 ft | 22 kts | 15° |
| 2026-05-05 08:21 | 13.67480 | 100.75469 | 13 ft | 30 kts | 16° |
| 2026-05-05 08:22 | 13.67656 | 100.75516 | 13 ft | 15 kts | 14° |
| 2026-05-05 08:22 | 13.67752 | 100.75499 | 13 ft | 14 kts | 295° |
| 2026-05-05 08:22 | 13.67761 | 100.75476 | 14 ft | 2 kts | 294° |
| 2026-05-05 08:22 | 13.67767 | 100.75466 | 13 ft | 4 kts | 304° |
| 2026-05-05 08:23 | 13.67836 | 100.75461 | 13 ft | 15 kts | 10° |
| 2026-05-05 08:23 | 13.67947 | 100.75489 | 13 ft | 17 kts | 17° |
| 2026-05-05 08:23 | 13.68072 | 100.75524 | 13 ft | 20 kts | 15° |
| 2026-05-05 08:23 | 13.68182 | 100.75556 | 13 ft | 10 kts | 5° |
| 2026-05-05 08:24 | 13.68249 | 100.75567 | 13 ft | 10 kts | 10° |
| 2026-05-05 08:24 | 13.68272 | 100.75572 | 13 ft | 2 kts | 11° |
| 2026-05-05 08:24 | 13.68292 | 100.75577 | 13 ft | 5 kts | 15° |
| 2026-05-05 08:24 | 13.68346 | 100.75595 | 13 ft | 9 kts | 18° |
| 2026-05-05 08:25 | 13.68415 | 100.75610 | 13 ft | 11 kts | 360° |
| 2026-05-05 08:25 | 13.68474 | 100.75565 | 13 ft | 11 kts | 294° |
| 2026-05-05 08:25 | 13.68492 | 100.75486 | 13 ft | 12 kts | 294° |
| 2026-05-05 08:25 | 13.68556 | 100.75450 | 13 ft | 11 kts | 7° |
| 2026-05-05 08:26 | 13.68643 | 100.75471 | 13 ft | 14 kts | 13° |
| 2026-05-05 08:26 | 13.68743 | 100.75495 | 15 ft | 16 kts | 13° |
| 2026-05-05 08:26 | 13.68840 | 100.75524 | 13 ft | 12 kts | 10° |
| 2026-05-05 08:26 | 13.68909 | 100.75515 | 13 ft | 8 kts | 337° |
| 2026-05-05 08:27 | 13.68945 | 100.75520 | 13 ft | 8 kts | 12° |
| 2026-05-05 08:27 | 13.68976 | 100.75528 | 13 ft | 0 kts | 14° |